Beaver County Airport
KBVI : now visible

Airfield :











YOU CAN JOIN US ON...

 
LOGIN :

Register | Disclaimer

   EN    FR    IT 

 









Legend :    VFR   Marginal VFR   IFR   Intensive IFR   Very Intensive IFR
Visi :
Ceiling :
>= 8 km
>= 3000ft
5 to 8 km
1000 to 3000 ft
1500m to 5 km
500 to 1000 ft
800 to 1500m
200 to 500 ft
< 800m
< 200 ft
Symbols :   Thunderstorms  Fog  Heavy snow  Heavy precipitations  Wind > 20 kt






- Airport Elevation : 1253 ft


KBVI - Beaver County

CURRENT METAR :
  • 191015Z AUTO 00000KT 10SM SCT070 18/14 A3021 RMK AO2 T01770143

EXPIRED METARs :
  • 190955Z AUTO 00000KT 10SM BKN060 18/14 A3020 RMK AO2 T01770144
  • 190935Z AUTO 02003KT 10SM BKN060 18/15 A3020 RMK AO2 T01760146
  • 190915Z AUTO 00000KT 10SM SCT060 SCT070 18/14 A3020 RMK AO2 T01760143
  • 190855Z AUTO 00000KT 10SM SCT060 SCT070 18/15 A3019 RMK AO2 T01800147
  • 190835Z AUTO 02003KT 10SM SCT060 18/15 A3019 RMK AO2 T01770145
  • 190815Z AUTO 02003KT 10SM SCT070 18/15 A3019 RMK AO2 T01760145
  • 190755Z AUTO 02003KT 10SM SCT070 18/14 A3019 RMK AO2 T01810144
  • 190735Z AUTO 00000KT 10SM SCT070 18/15 A3019 RMK AO2 T01780151
  • 190715Z AUTO 00000KT 10SM SCT070 18/15 A3019 RMK AO2 T01770147

TAF KBVI
Valid from the 19 at 06:00 until the 20 at 06:00 UTC


190533Z 1906/2006 36005KT P6SM SKC
FM191400 05005KT P6SM SKC
KZOB FIR / North America



MET'MAP, your aeronautical weather chart ! - Copyright ORBIFLY December 2007 - Disclaimer

ORBIFLY MET'MAP TEAM :

Programming & Development : Alexandra Zaïnal
Concept & original design : Baudouin d'Aumeries
Assistance for programming : Marc-Olivier Méhu
Technical & hardware support : Manuel Goepfert

Contact : metmap@orbifly.com




SOURCES & CREDITS :

   NOAA       Earth
Advisory